Terminal Aerodrome Forecast
Issued by NWS Cleveland, OH

Home | Current Version | Previous Version | Graphics & Text | Print | Product List | Glossary On
Versions: 1 2 3 4 5 6 7 8 9 10 11 12
000
FTUS41 KCLE 171728
TAFYNG
TAF
KYNG 171728Z 1718/1818 25006KT P6SM SCT020
      TEMPO 1718/1721 5SM -SN BKN020
     FM172200 24006KT P6SM BKN045
     FM180500 23008KT P6SM SCT150=

USA.gov is the U.S. government's official web portal to all federal, state and local government web resources and services.